Time;durP1;ratioP1;P1;durP2;ratioP2;P2;SDS_P1;SDS_P2;PMS_P1;PMS_P2;Temp;Humidity;BMP_temperature;BMP_pressure;BME280_temperature;BME280_humidity;BME280_pressure;Samples;Min_cycle;Max_cycle;Signal;HPM_P1;HPM_P2
2023/05/28 00:02:18;;;;;;;7.90;6.37;;;13.90;99.90;;;;;;5031741;28;20292;-68
2023/05/28 00:04:43;;;;;;;6.77;5.90;;;13.90;99.90;;;;;;5031841;28;20228;-67
2023/05/28 00:07:10;;;;;;;9.33;6.27;;;13.80;99.90;;;;;;5031947;28;20178;-68
2023/05/28 00:09:36;;;;;;;11.57;6.20;;;13.70;99.90;;;;;;5031677;28;20259;-68
2023/05/28 00:12:02;;;;;;;6.87;6.17;;;13.70;99.90;;;;;;5031776;28;20421;-67
2023/05/28 00:14:28;;;;;;;10.20;6.37;;;13.60;99.90;;;;;;5031805;28;20437;-67
2023/05/28 00:16:54;;;;;;;9.10;6.37;;;13.60;99.90;;;;;;5031815;28;20497;-67
2023/05/28 00:19:19;;;;;;;6.90;6.20;;;13.60;99.90;;;;;;5031484;28;20186;-67
2023/05/28 00:21:45;;;;;;;8.00;6.33;;;13.50;99.90;;;;;;5035440;28;20323;-68
2023/05/28 00:24:10;;;;;;;10.03;6.33;;;13.50;99.90;;;;;;5035715;28;20194;-67
2023/05/28 00:26:37;;;;;;;10.83;5.80;;;13.50;99.90;;;;;;5035834;28;20553;-68
2023/05/28 00:29:02;;;;;;;10.67;5.87;;;13.40;99.90;;;;;;5035459;28;20166;-68
2023/05/28 00:31:28;;;;;;;13.90;6.93;;;13.40;99.90;;;;;;5035725;28;20420;-67
2023/05/28 00:33:53;;;;;;;6.23;5.53;;;13.40;99.90;;;;;;5035488;28;20569;-67
2023/05/28 00:36:19;;;;;;;8.77;6.33;;;13.30;99.90;;;;;;5035635;28;20232;-68
2023/05/28 00:38:44;;;;;;;9.60;7.10;;;13.30;99.90;;;;;;5035401;28;20255;-67
2023/05/28 00:41:10;;;;;;;7.50;6.80;;;13.20;99.90;;;;;;5035532;28;20605;-67
2023/05/28 00:43:36;;;;;;;10.73;8.00;;;13.20;99.90;;;;;;5035454;28;20216;-67
2023/05/28 00:46:04;;;;;;;9.77;6.70;;;13.10;99.90;;;;;;5035504;28;20174;-68
2023/05/28 00:48:30;;;;;;;9.37;6.30;;;13.10;99.90;;;;;;5035065;28;20190;-67
2023/05/28 00:50:57;;;;;;;6.93;5.63;;;13.10;99.90;;;;;;5035313;28;20419;-68
2023/05/28 00:53:24;;;;;;;9.57;6.07;;;13.10;99.90;;;;;;5035170;28;20805;-67
2023/05/28 00:55:51;;;;;;;7.00;5.77;;;13.10;99.90;;;;;;5035346;28;20465;-68
2023/05/28 00:58:19;;;;;;;7.07;5.90;;;13.10;99.90;;;;;;5034849;28;20468;-67
2023/05/28 01:00:45;;;;;;;8.13;6.67;;;13.10;99.90;;;;;;5017346;28;20420;-67
2023/05/28 01:03:11;;;;;;;10.63;6.57;;;13.00;99.90;;;;;;5035133;28;20610;-68
2023/05/28 01:05:37;;;;;;;8.23;6.60;;;12.90;99.90;;;;;;5035119;28;20496;-68
2023/05/28 01:08:03;;;;;;;11.60;5.97;;;12.80;99.90;;;;;;5034980;28;20426;-68
2023/05/28 01:10:31;;;;;;;8.97;7.20;;;12.80;99.90;;;;;;5034797;28;20210;-67
2023/05/28 01:12:58;;;;;;;9.83;6.00;;;12.80;99.90;;;;;;5034885;28;20969;-68
2023/05/28 01:15:25;;;;;;;9.97;7.30;;;12.80;99.90;;;;;;5034835;28;20428;-67
2023/05/28 01:17:55;;;;;;;8.10;6.47;;;12.80;99.90;;;;;;5035029;28;20424;-67
2023/05/28 01:20:20;;;;;;;7.63;6.67;;;12.80;99.90;;;;;;5034757;28;20420;-68
2023/05/28 01:22:50;;;;;;;9.57;6.87;;;12.80;99.90;;;;;;5034676;28;20530;-68
2023/05/28 01:25:17;;;;;;;8.10;5.83;;;12.80;99.90;;;;;;5034781;28;20178;-68
2023/05/28 01:27:42;;;;;;;7.67;6.80;;;12.80;99.90;;;;;;5034654;28;20915;-68
2023/05/28 01:30:14;;;;;;;7.03;6.33;;;12.70;99.90;;;;;;5034343;28;20471;-68
2023/05/28 01:32:40;;;;;;;8.00;5.83;;;12.60;99.90;;;;;;5033618;28;20601;-68
2023/05/28 01:35:08;;;;;;;8.93;5.90;;;12.60;99.90;;;;;;5034514;28;20429;-68
2023/05/28 01:37:37;;;;;;;10.47;6.30;;;12.50;99.90;;;;;;5034612;28;20182;-67
2023/05/28 01:40:04;;;;;;;8.67;6.33;;;12.50;99.90;;;;;;5034148;28;20421;-68
2023/05/28 01:42:33;;;;;;;8.77;7.87;;;12.60;99.90;;;;;;5034250;28;20504;-68
2023/05/28 01:45:00;;;;;;;6.13;5.33;;;12.50;99.90;;;;;;5034572;28;20427;-68
2023/05/28 01:47:26;;;;;;;9.00;6.30;;;12.40;99.90;;;;;;5034284;28;20413;-68
2023/05/28 01:49:51;;;;;;;8.43;6.03;;;12.40;99.90;;;;;;5034008;28;20429;-67
2023/05/28 01:52:18;;;;;;;8.20;5.70;;;12.30;99.90;;;;;;5034108;28;20456;-68
2023/05/28 01:54:43;;;;;;;10.40;6.50;;;12.30;99.90;;;;;;5034132;28;20189;-68
2023/05/28 01:57:09;;;;;;;8.60;6.27;;;12.20;99.90;;;;;;5034068;28;20926;-67
2023/05/28 01:59:34;;;;;;;14.03;6.83;;;12.20;99.90;;;;;;5033915;28;20180;-68
2023/05/28 02:02:00;;;;;;;7.60;5.93;;;12.10;99.90;;;;;;5034124;28;20238;-67
2023/05/28 02:04:25;;;;;;;7.10;6.27;;;12.10;99.90;;;;;;5034015;28;20194;-68
2023/05/28 02:06:51;;;;;;;6.80;6.20;;;12.00;99.90;;;;;;5033958;28;20349;-68
2023/05/28 02:09:16;;;;;;;8.03;6.37;;;12.00;99.90;;;;;;5033619;28;20170;-68
2023/05/28 02:11:42;;;;;;;7.73;6.23;;;12.00;99.90;;;;;;5033850;28;20636;-67
2023/05/28 02:14:13;;;;;;;8.57;6.87;;;12.00;99.90;;;;;;5033651;28;20289;-68
2023/05/28 02:16:41;;;;;;;11.47;6.30;;;12.00;99.90;;;;;;5034060;28;20405;-67
2023/05/28 02:19:06;;;;;;;7.83;5.90;;;12.00;99.90;;;;;;5015637;28;20460;-67
2023/05/28 02:21:32;;;;;;;7.23;6.60;;;12.00;99.90;;;;;;5033629;28;20467;-67
2023/05/28 02:23:58;;;;;;;10.23;5.80;;;11.90;99.90;;;;;;5033536;28;20186;-67
2023/05/28 02:26:25;;;;;;;9.30;7.00;;;11.90;99.90;;;;;;5033606;28;20232;-68
2023/05/28 02:28:50;;;;;;;11.70;7.43;;;11.90;99.90;;;;;;5033317;28;20174;-67
2023/05/28 02:31:16;;;;;;;13.43;6.30;;;11.90;99.90;;;;;;5033479;28;20425;-67
2023/05/28 02:33:41;;;;;;;11.10;7.30;;;11.80;99.90;;;;;;5033440;28;20230;-67
2023/05/28 02:36:08;;;;;;;9.77;6.53;;;11.80;99.90;;;;;;5033365;28;20186;-67
2023/05/28 02:38:33;;;;;;;8.73;6.50;;;11.70;99.90;;;;;;5033000;28;20186;-67
2023/05/28 02:40:59;;;;;;;9.90;6.57;;;11.60;99.90;;;;;;5033223;28;20417;-67
2023/05/28 02:43:24;;;;;;;9.47;7.00;;;11.60;99.90;;;;;;5033236;28;20706;-68
2023/05/28 02:45:50;;;;;;;8.50;6.43;;;11.60;99.90;;;;;;5033369;28;20251;-67
2023/05/28 02:48:15;;;;;;;10.60;6.87;;;11.50;99.90;;;;;;5032841;28;20180;-68
2023/05/28 02:50:41;;;;;;;8.20;7.00;;;11.50;99.90;;;;;;5033131;28;20269;-67
2023/05/28 02:53:06;;;;;;;11.37;7.43;;;11.50;99.90;;;;;;5033059;28;20248;-68
2023/05/28 02:55:32;;;;;;;10.53;6.87;;;11.40;99.90;;;;;;5032948;28;20175;-68
2023/05/28 02:57:58;;;;;;;9.73;7.20;;;11.30;99.90;;;;;;5033125;28;20230;-67
2023/05/28 03:00:23;;;;;;;7.93;6.53;;;11.30;99.90;;;;;;5032800;28;20719;-68
2023/05/28 03:02:49;;;;;;;10.63;7.43;;;11.30;99.90;;;;;;5032788;28;20289;-68
2023/05/28 03:05:14;;;;;;;10.87;7.37;;;11.20;99.90;;;;;;5032781;28;20166;-67
2023/05/28 03:07:40;;;;;;;9.13;6.87;;;11.20;99.90;;;;;;5032687;28;20261;-68
2023/05/28 03:10:07;;;;;;;12.90;7.00;;;11.20;99.90;;;;;;5032387;28;20174;-68
2023/05/28 03:12:32;;;;;;;9.90;7.10;;;11.20;99.90;;;;;;5032628;28;20201;-68
2023/05/28 03:14:58;;;;;;;8.90;6.93;;;11.20;99.90;;;;;;5032657;28;20427;-68
2023/05/28 03:17:23;;;;;;;8.30;6.53;;;11.20;99.90;;;;;;5032760;28;20179;-68
2023/05/28 03:19:49;;;;;;;11.40;6.83;;;11.20;99.90;;;;;;5032360;28;20181;-68
2023/05/28 03:22:14;;;;;;;9.73;6.60;;;11.20;99.90;;;;;;5032373;28;20198;-68
2023/05/28 03:24:40;;;;;;;10.07;7.33;;;11.20;99.90;;;;;;5032376;28;20217;-68
2023/05/28 03:27:06;;;;;;;13.23;7.53;;;11.30;99.90;;;;;;5032694;28;20265;-68
2023/05/28 03:29:32;;;;;;;10.67;6.80;;;11.30;99.90;;;;;;5032161;28;20261;-68
2023/05/28 03:31:57;;;;;;;8.47;7.67;;;11.30;99.90;;;;;;5032377;28;20178;-68
2023/05/28 03:34:24;;;;;;;7.87;7.13;;;11.30;99.90;;;;;;5032346;28;20268;-67
2023/05/28 03:36:51;;;;;;;8.93;6.70;;;11.30;99.90;;;;;;5032312;28;20182;-68
2023/05/28 03:39:16;;;;;;;10.67;6.93;;;11.30;99.90;;;;;;5031758;28;20488;-68
2023/05/28 03:41:44;;;;;;;8.60;7.20;;;11.20;99.90;;;;;;5032123;28;20428;-67
2023/05/28 03:44:10;;;;;;;8.90;6.37;;;11.20;99.90;;;;;;5032195;28;20186;-67
2023/05/28 03:46:35;;;;;;;9.63;6.63;;;11.20;99.90;;;;;;5032079;28;20436;-67
2023/05/28 03:49:01;;;;;;;8.37;6.37;;;11.20;99.90;;;;;;5031765;28;20424;-68
2023/05/28 03:51:26;;;;;;;8.03;6.90;;;11.20;99.90;;;;;;5032068;28;20166;-67
2023/05/28 03:53:52;;;;;;;8.80;6.70;;;11.20;99.90;;;;;;5032040;28;20190;-68
2023/05/28 03:56:20;;;;;;;10.57;6.47;;;11.20;99.90;;;;;;5031557;28;20232;-68
2023/05/28 03:58:46;;;;;;;8.90;6.20;;;11.30;99.90;;;;;;5031773;28;20172;-68
2023/05/28 04:01:12;;;;;;;9.83;6.93;;;11.40;99.90;;;;;;5031891;28;20504;-67
2023/05/28 04:03:38;;;;;;;10.23;7.43;;;11.40;99.90;;;;;;5031782;28;20240;-67
2023/05/28 04:06:04;;;;;;;10.63;7.07;;;11.40;99.90;;;;;;5031928;28;20786;-67
2023/05/28 04:08:29;;;;;;;11.07;7.00;;;11.60;99.90;;;;;;5031592;28;20644;-68
2023/05/28 04:10:55;;;;;;;7.50;6.80;;;11.70;99.90;;;;;;5031930;28;20648;-67
2023/05/28 04:13:22;;;;;;;9.33;7.90;;;11.80;99.90;;;;;;5031678;28;20198;-67
2023/05/28 04:15:47;;;;;;;10.33;6.80;;;11.80;99.90;;;;;;5031873;28;20201;-68
2023/05/28 04:18:13;;;;;;;8.70;6.00;;;11.80;99.90;;;;;;5031466;28;20457;-68
2023/05/28 04:20:38;;;;;;;9.20;7.00;;;11.90;99.90;;;;;;5031774;28;20202;-68
2023/05/28 04:23:04;;;;;;;11.20;7.30;;;11.90;99.90;;;;;;5031434;28;20213;-68
2023/05/28 04:25:29;;;;;;;9.67;6.90;;;12.10;99.90;;;;;;5031763;28;20174;-68
2023/05/28 04:27:56;;;;;;;9.37;6.90;;;12.30;99.90;;;;;;5031676;28;20170;-68
2023/05/28 04:30:22;;;;;;;13.80;7.33;;;12.50;99.90;;;;;;5031296;28;20200;-68
2023/05/28 04:32:51;;;;;;;9.30;7.17;;;12.50;99.90;;;;;;5031445;28;20448;-68
2023/05/28 04:35:17;;;;;;;6.83;5.83;;;12.60;99.90;;;;;;5031429;28;20425;-68
2023/05/28 04:37:44;;;;;;;11.90;7.13;;;12.80;99.90;;;;;;5031480;28;20421;-68
2023/05/28 04:40:13;;;;;;;15.20;6.90;;;12.90;99.90;;;;;;5031208;28;20445;-68
2023/05/28 04:42:42;;;;;;;7.03;5.83;;;13.20;99.90;;;;;;5031314;28;20841;-67
2023/05/28 04:45:09;;;;;;;11.97;7.30;;;13.30;99.90;;;;;;5031439;28;20448;-68
2023/05/28 04:47:36;;;;;;;11.00;7.50;;;13.30;99.90;;;;;;5031416;28;20432;-67
2023/05/28 04:50:04;;;;;;;8.03;7.20;;;13.50;99.90;;;;;;5030917;28;20416;-68
2023/05/28 04:52:31;;;;;;;9.77;7.70;;;13.60;99.90;;;;;;5031282;28;20498;-68
2023/05/28 04:54:57;;;;;;;10.67;7.77;;;13.80;99.90;;;;;;5031314;28;20925;-67
2023/05/28 04:57:22;;;;;;;9.63;8.03;;;13.90;99.90;;;;;;5031338;28;20435;-68
2023/05/28 04:59:49;;;;;;;12.47;7.90;;;14.10;99.90;;;;;;5031047;28;20262;-68
2023/05/28 05:02:16;;;;;;;10.20;6.67;;;14.20;99.90;;;;;;5031163;28;20679;-68
2023/05/28 05:04:42;;;;;;;8.70;7.00;;;14.30;99.90;;;;;;5031203;28;20417;-68
2023/05/28 05:07:07;;;;;;;8.27;7.17;;;14.50;99.90;;;;;;5032097;28;20435;-68
2023/05/28 05:09:33;;;;;;;8.40;7.10;;;14.60;99.90;;;;;;5034917;28;20179;-68
2023/05/28 05:11:59;;;;;;;9.50;6.40;;;14.80;99.90;;;;;;5034733;28;20174;-68
2023/05/28 05:14:24;;;;;;;11.47;7.30;;;14.90;99.90;;;;;;5035258;28;20694;-68
2023/05/28 05:16:50;;;;;;;9.07;7.60;;;15.10;99.90;;;;;;5034811;28;20232;-68
2023/05/28 05:19:15;;;;;;;8.67;7.27;;;15.20;99.90;;;;;;5034306;28;20171;-68
2023/05/28 05:21:41;;;;;;;8.20;6.47;;;15.30;99.90;;;;;;5034597;28;20185;-68
2023/05/28 05:24:06;;;;;;;11.37;7.93;;;15.40;99.90;;;;;;5034699;28;20218;-68
2023/05/28 05:26:32;;;;;;;10.63;7.00;;;15.60;99.90;;;;;;5034743;28;20166;-68
2023/05/28 05:28:57;;;;;;;13.10;8.07;;;15.70;99.90;;;;;;5034292;28;20628;-69
2023/05/28 05:31:23;;;;;;;7.40;6.70;;;15.80;99.90;;;;;;5034509;28;20703;-68
2023/05/28 05:33:48;;;;;;;9.20;7.17;;;15.90;99.90;;;;;;5034354;28;20205;-68
2023/05/28 05:36:14;;;;;;;9.20;7.47;;;16.10;99.90;;;;;;5034652;28;20181;-69
2023/05/28 05:38:39;;;;;;;7.77;6.87;;;16.20;99.90;;;;;;5034199;28;20236;-68
2023/05/28 05:41:05;;;;;;;7.90;7.10;;;16.30;99.90;;;;;;5034600;28;20181;-68
2023/05/28 05:43:30;;;;;;;13.17;7.77;;;16.50;99.90;;;;;;5034303;28;20198;-68
2023/05/28 05:45:56;;;;;;;8.77;7.27;;;16.60;99.90;;;;;;5034366;28;20224;-68
2023/05/28 05:48:25;;;;;;;9.40;6.83;;;16.50;99.90;;;;;;5033948;28;20173;-68
2023/05/28 05:50:51;;;;;;;7.37;6.17;;;16.60;99.90;;;;;;5034552;28;20266;-69
2023/05/28 05:53:17;;;;;;;7.00;6.23;;;16.80;99.90;;;;;;5034278;28;20512;-68
2023/05/28 05:55:43;;;;;;;7.77;7.00;;;17.00;99.90;;;;;;5034204;28;20962;-69
2023/05/28 05:58:09;;;;;;;15.67;6.80;;;17.10;99.90;;;;;;5034050;28;20505;-69
2023/05/28 06:00:35;;;;;;;10.37;8.20;;;17.30;99.90;;;;;;5033973;28;20496;-69
2023/05/28 06:03:00;;;;;;;7.90;7.10;;;17.50;99.90;;;;;;5033711;28;20752;-69
2023/05/28 06:05:26;;;;;;;8.87;7.10;;;17.60;99.90;;;;;;5033915;28;20163;-69
2023/05/28 06:07:52;;;;;;;8.33;6.80;;;17.60;99.90;;;;;;5033981;28;20228;-69
2023/05/28 06:10:18;;;;;;;9.53;6.37;;;17.70;99.90;;;;;;5033829;28;20500;-69
2023/05/28 06:12:43;;;;;;;9.70;6.70;;;17.80;99.90;;;;;;5016066;28;20308;-69
2023/05/28 06:15:09;;;;;;;8.47;6.83;;;17.90;99.90;;;;;;5033752;28;20173;-69
2023/05/28 06:17:35;;;;;;;10.47;6.40;;;18.10;99.90;;;;;;5033097;28;20628;-69
2023/05/28 06:20:01;;;;;;;7.97;6.90;;;18.30;99.90;;;;;;5033348;28;20417;-68
2023/05/28 06:22:26;;;;;;;8.47;6.17;;;18.40;99.90;;;;;;5033400;28;20198;-69
2023/05/28 06:24:52;;;;;;;7.40;6.70;;;18.50;99.90;;;;;;5033524;28;20166;-69
2023/05/28 06:27:18;;;;;;;10.47;7.00;;;18.70;99.90;;;;;;5033530;28;20173;-69
2023/05/28 06:29:44;;;;;;;7.97;6.43;;;18.90;99.90;;;;;;5033183;28;20167;-69
2023/05/28 06:32:09;;;;;;;8.20;6.57;;;19.00;99.90;;;;;;5033134;28;20500;-69
2023/05/28 06:34:35;;;;;;;10.07;6.90;;;19.10;99.90;;;;;;5033316;28;20185;-69
2023/05/28 06:37:01;;;;;;;10.60;6.10;;;19.30;99.90;;;;;;5015527;28;20177;-69
2023/05/28 06:39:27;;;;;;;9.97;7.43;;;19.40;99.90;;;;;;5032947;28;20417;-68
2023/05/28 06:41:53;;;;;;;9.30;6.57;;;19.40;99.90;;;;;;5033150;28;20206;-69
2023/05/28 06:44:18;;;;;;;11.70;7.40;;;19.40;99.90;;;;;;5033227;28;20856;-69
2023/05/28 06:46:44;;;;;;;10.90;6.10;;;19.50;99.90;;;;;;5032981;28;20174;-69
2023/05/28 06:49:09;;;;;;;7.40;6.63;;;19.60;99.90;;;;;;5032833;28;20652;-69
2023/05/28 06:51:36;;;;;;;13.00;6.90;;;19.70;99.50;;;;;;5033070;28;20208;-69
2023/05/28 06:54:01;;;;;;;6.80;5.97;;;19.70;99.10;;;;;;5032892;28;20317;-69
2023/05/28 06:56:27;;;;;;;9.40;6.30;;;19.80;99.60;;;;;;5032933;28;20500;-69
2023/05/28 06:58:53;;;;;;;8.53;6.03;;;20.00;98.60;;;;;;5032696;28;20628;-69
2023/05/28 07:01:18;;;;;;;9.83;6.50;;;20.10;98.10;;;;;;5032791;28;20300;-69
2023/05/28 07:03:44;;;;;;;10.63;7.60;;;20.10;98.10;;;;;;5032706;28;20209;-69
2023/05/28 07:06:10;;;;;;;6.63;5.90;;;20.20;99.00;;;;;;5032817;28;20257;-69
2023/05/28 07:08:35;;;;;;;11.07;8.27;;;20.20;97.90;;;;;;5032473;28;20171;-69
2023/05/28 07:11:01;;;;;;;11.00;6.80;;;19.80;97.90;;;;;;5032781;28;20409;-69
2023/05/28 07:13:26;;;;;;;9.53;6.10;;;19.90;98.50;;;;;;5032549;28;20297;-69
2023/05/28 07:15:52;;;;;;;8.83;6.03;;;19.90;97.70;;;;;;5032577;28;20197;-69
2023/05/28 07:18:17;;;;;;;9.37;6.20;;;19.90;98.20;;;;;;5032524;28;20181;-69
2023/05/28 07:20:43;;;;;;;9.20;5.93;;;20.30;96.10;;;;;;5032672;28;20189;-69
2023/05/28 07:23:11;;;;;;;8.23;7.10;;;20.30;95.40;;;;;;5032477;28;20213;-69
2023/05/28 07:25:37;;;;;;;8.37;7.43;;;20.20;95.40;;;;;;5032515;28;20224;-69
2023/05/28 07:28:02;;;;;;;7.87;6.20;;;20.10;95.80;;;;;;5032438;28;20470;-69
2023/05/28 07:30:28;;;;;;;8.73;7.53;;;20.50;96.10;;;;;;5013489;28;20820;-69
2023/05/28 07:32:53;;;;;;;9.80;7.40;;;20.80;94.90;;;;;;5032424;28;20305;-69
2023/05/28 07:35:19;;;;;;;10.33;7.10;;;20.90;95.00;;;;;;5032228;28;20699;-69
2023/05/28 07:37:45;;;;;;;9.47;8.37;;;21.10;94.60;;;;;;5032209;28;20170;-69
2023/05/28 07:40:10;;;;;;;9.20;6.90;;;21.40;93.20;;;;;;5031984;28;20525;-70
2023/05/28 07:42:36;;;;;;;8.30;7.40;;;21.60;93.80;;;;;;5032088;28;20202;-69
2023/05/28 07:45:01;;;;;;;9.40;6.87;;;21.70;93.20;;;;;;5032031;28;20174;-69
2023/05/28 07:47:27;;;;;;;8.70;7.40;;;22.00;92.50;;;;;;5032109;28;20166;-69
2023/05/28 07:49:52;;;;;;;7.77;6.90;;;22.20;92.30;;;;;;5031842;28;20201;-69
2023/05/28 07:52:19;;;;;;;9.97;6.83;;;22.30;90.90;;;;;;5031946;28;20663;-69
2023/05/28 07:54:44;;;;;;;7.97;6.00;;;22.40;90.80;;;;;;5031966;28;20174;-69
2023/05/28 07:57:10;;;;;;;12.50;6.90;;;22.60;90.40;;;;;;5034193;28;20412;-68
2023/05/28 07:59:36;;;;;;;6.73;6.13;;;22.80;89.60;;;;;;5033750;28;20675;-69
2023/05/28 08:02:01;;;;;;;8.20;6.70;;;23.00;89.40;;;;;;5033990;28;20226;-69
2023/05/28 08:04:27;;;;;;;7.90;6.23;;;22.90;89.00;;;;;;5033408;28;20190;-68
2023/05/28 08:06:52;;;;;;;9.90;6.53;;;23.00;88.40;;;;;;5033615;28;20178;-69
2023/05/28 08:09:18;;;;;;;9.80;7.13;;;23.20;87.50;;;;;;5033276;28;20787;-69
2023/05/28 08:11:44;;;;;;;8.30;6.83;;;23.40;85.70;;;;;;5033304;28;20258;-69
2023/05/28 08:14:09;;;;;;;11.50;8.97;;;23.50;85.40;;;;;;5032713;28;20281;-69
2023/05/28 08:16:35;;;;;;;9.87;6.20;;;23.10;84.80;;;;;;5033373;28;20450;-69
2023/05/28 08:19:01;;;;;;;8.87;6.70;;;23.20;85.50;;;;;;5032622;28;20171;-69
2023/05/28 08:21:27;;;;;;;8.60;6.30;;;23.40;82.60;;;;;;5033053;28;20249;-68
2023/05/28 08:23:54;;;;;;;9.40;6.27;;;23.70;82.30;;;;;;5032449;28;20279;-69
2023/05/28 08:26:21;;;;;;;9.40;6.50;;;23.70;82.00;;;;;;5032384;28;20239;-69
2023/05/28 08:28:47;;;;;;;10.50;7.40;;;23.70;81.40;;;;;;5032534;28;20421;-69
2023/05/28 08:31:12;;;;;;;8.10;6.90;;;23.90;79.60;;;;;;5032688;28;20516;-69
2023/05/28 08:33:38;;;;;;;9.30;6.70;;;24.00;78.60;;;;;;5032149;28;20566;-68
2023/05/28 08:36:04;;;;;;;6.17;5.60;;;24.20;78.40;;;;;;5032508;28;20224;-69
2023/05/28 08:38:29;;;;;;;7.90;6.57;;;24.20;77.40;;;;;;5032046;28;20292;-68
2023/05/28 08:40:56;;;;;;;7.27;6.57;;;24.40;76.40;;;;;;5033368;28;20202;-69
2023/05/28 08:43:22;;;;;;;7.30;6.00;;;24.60;75.50;;;;;;5037434;28;20676;-69
2023/05/28 08:45:51;;;;;;;10.03;7.00;;;24.70;75.60;;;;;;5037239;28;20421;-69
2023/05/28 08:48:17;;;;;;;11.30;6.30;;;24.60;74.00;;;;;;5036224;28;20413;-69
2023/05/28 08:50:48;;;;;;;8.00;6.60;;;24.60;73.20;;;;;;5036687;28;20417;-69
2023/05/28 08:53:17;;;;;;;8.50;6.50;;;24.60;73.10;;;;;;5036461;28;20446;-69
2023/05/28 08:55:46;;;;;;;8.83;6.37;;;24.30;73.70;;;;;;5036669;28;20439;-69
2023/05/28 08:58:12;;;;;;;7.87;6.03;;;24.50;74.10;;;;;;5018761;28;20874;-69
2023/05/28 09:00:38;;;;;;;7.70;6.03;;;24.90;73.30;;;;;;5036347;28;20420;-69
2023/05/28 09:03:07;;;;;;;7.97;6.00;;;25.10;71.60;;;;;;5036267;28;20476;-69
2023/05/28 09:05:36;;;;;;;7.97;6.33;;;25.20;70.10;;;;;;5035950;28;20170;-69
2023/05/28 09:08:04;;;;;;;7.00;5.13;;;25.20;71.10;;;;;;5035680;28;20458;-69
2023/05/28 09:10:30;;;;;;;10.20;6.27;;;25.60;68.50;;;;;;5035409;28;21152;-69
2023/05/28 09:13:00;;;;;;;8.63;6.97;;;25.70;66.10;;;;;;5036087;28;20474;-69
2023/05/28 09:15:26;;;;;;;8.10;5.50;;;26.00;67.70;;;;;;5035855;28;20265;-69
2023/05/28 09:17:52;;;;;;;9.90;5.77;;;26.20;65.70;;;;;;5035651;28;20482;-69
2023/05/28 09:20:17;;;;;;;7.97;5.57;;;26.60;64.00;;;;;;5035479;28;20425;-69
2023/05/28 09:22:43;;;;;;;9.93;5.93;;;26.30;63.40;;;;;;5035576;28;20206;-69
2023/05/28 09:25:10;;;;;;;13.20;7.20;;;26.00;65.70;;;;;;5036039;28;20177;-69
2023/05/28 09:27:36;;;;;;;10.87;8.97;;;26.50;65.50;;;;;;5035838;28;20578;-69
2023/05/28 09:30:08;;;;;;;8.70;6.17;;;26.90;62.50;;;;;;5035321;28;20828;-69
2023/05/28 09:32:35;;;;;;;7.17;5.70;;;27.00;62.00;;;;;;5035551;28;20571;-70
2023/05/28 09:35:01;;;;;;;6.27;5.67;;;27.30;60.10;;;;;;5035308;28;20417;-69
2023/05/28 09:37:29;;;;;;;6.87;5.20;;;27.60;60.10;;;;;;5035443;28;20417;-69
2023/05/28 09:40:03;;;;;;;7.43;5.70;;;28.00;59.20;;;;;;5036219;28;20436;-70
2023/05/28 09:42:39;;;;;;;11.30;6.40;;;28.50;58.50;;;;;;5035451;28;20872;-69
2023/05/28 09:45:05;;;;;;;6.00;5.40;;;29.10;55.70;;;;;;5037701;28;20416;-69
2023/05/28 09:47:30;;;;;;;6.93;6.00;;;29.10;56.40;;;;;;5038312;28;20413;-69
2023/05/28 09:49:56;;;;;;;7.20;5.57;;;29.40;55.50;;;;;;5037119;28;20494;-70
2023/05/28 09:52:22;;;;;;;6.73;5.73;;;30.00;54.40;;;;;;5037171;28;20175;-69
2023/05/28 09:54:58;;;;;;;7.50;6.00;;;30.20;54.10;;;;;;5038246;28;20261;-70
2023/05/28 09:57:26;;;;;;;7.20;6.60;;;30.40;53.40;;;;;;5037366;28;20455;-69
2023/05/28 09:59:56;;;;;;;6.03;5.53;;;30.50;53.20;;;;;;5037452;28;20475;-70
2023/05/28 10:02:44;;;;;;;6.83;5.57;;;31.00;53.20;;;;;;5036735;28;20456;-69
2023/05/28 10:05:12;;;;;;;6.93;6.13;;;31.20;53.10;;;;;;5037008;28;20475;-70
2023/05/28 10:07:44;;;;;;;7.40;5.60;;;31.20;52.70;;;;;;5036591;28;20464;-70
2023/05/28 10:10:12;;;;;;;7.23;5.63;;;32.00;51.80;;;;;;5036905;28;20409;-69
2023/05/28 10:12:39;;;;;;;9.50;6.17;;;32.60;51.00;;;;;;5036272;28;20463;-69
2023/05/28 10:15:06;;;;;;;11.00;6.57;;;33.40;49.30;;;;;;5036146;28;20427;-70
2023/05/28 10:17:32;;;;;;;8.90;6.20;;;33.20;48.50;;;;;;5035624;28;20840;-69
2023/05/28 10:20:04;;;;;;;8.20;7.33;;;33.00;47.40;;;;;;5035287;28;20453;-70
2023/05/28 10:22:30;;;;;;;7.67;6.30;;;33.80;48.10;;;;;;5035128;28;20238;-70
2023/05/28 10:24:56;;;;;;;6.97;5.10;;;34.20;46.20;;;;;;5035412;28;20424;-70
2023/05/28 10:27:30;;;;;;;8.17;7.40;;;34.60;45.40;;;;;;5034992;28;20185;-70
2023/05/28 10:29:55;;;;;;;7.00;6.17;;;34.30;45.30;;;;;;5033967;28;20205;-67
2023/05/28 10:32:21;;;;;;;6.93;5.63;;;34.50;44.80;;;;;;5034256;28;20421;-68
2023/05/28 10:34:46;;;;;;;7.20;6.60;;;35.00;44.80;;;;;;5034977;28;20289;-70
2023/05/28 10:37:13;;;;;;;7.33;6.57;;;35.40;43.60;;;;;;5035319;28;20702;-70
2023/05/28 10:39:43;;;;;;;6.10;5.60;;;35.60;43.70;;;;;;5034974;28;20253;-70
2023/05/28 10:42:10;;;;;;;9.03;6.27;;;35.90;42.50;;;;;;5034385;28;20492;-70
2023/05/28 10:45:03;;;;;;;10.10;6.70;;;36.10;42.10;;;;;;5034327;28;20417;-70
2023/05/28 10:47:58;;;;;;;8.17;6.00;;;35.70;41.60;;;;;;5034297;28;20413;-71
2023/05/28 10:50:23;;;;;;;6.00;5.40;;;36.20;40.70;;;;;;5030344;28;20503;-67
2023/05/28 10:53:10;;;;;;;7.13;5.93;;;37.20;40.40;;;;;;5034225;28;20437;-67
2023/05/28 10:55:53;;;;;;;5.77;5.20;;;38.10;39.30;;;;;;5034863;28;20186;-67
2023/05/28 10:58:28;;;;;;;7.03;6.10;;;38.40;37.30;;;;;;5034175;28;20416;-70
2023/05/28 11:01:12;;;;;;;6.00;4.27;;;38.20;36.30;;;;;;5034183;28;21121;-71
2023/05/28 11:03:43;;;;;;;6.13;5.20;;;37.30;36.30;;;;;;5034135;28;20494;-70
2023/05/28 11:06:10;;;;;;;7.07;5.67;;;37.90;34.90;;;;;;5033911;28;20417;-70
2023/05/28 11:08:45;;;;;;;5.93;5.03;;;37.80;34.40;;;;;;5034298;28;20436;-70
2023/05/28 11:11:12;;;;;;;6.20;5.60;;;38.10;34.60;;;;;;5033583;28;20808;-70
2023/05/28 11:13:38;;;;;;;6.93;6.27;;;38.30;32.80;;;;;;5033871;28;20461;-70
2023/05/28 11:16:11;;;;;;;6.20;5.70;;;38.40;33.50;;;;;;5014934;28;20432;-70
2023/05/28 11:18:37;;;;;;;6.10;5.50;;;38.60;32.40;;;;;;5032280;28;20429;-70
2023/05/28 11:21:07;;;;;;;6.17;5.50;;;38.80;32.00;;;;;;5032524;28;20425;-70
2023/05/28 11:23:34;;;;;;;5.60;5.10;;;38.70;31.70;;;;;;5032546;28;20461;-70
2023/05/28 11:26:00;;;;;;;6.20;5.70;;;38.30;31.50;;;;;;5032353;28;20428;-70
2023/05/28 11:28:26;;;;;;;6.00;5.50;;;39.10;32.00;;;;;;5032359;28;20786;-70
2023/05/28 11:30:52;;;;;;;8.43;6.47;;;39.40;31.70;;;;;;5032480;28;20182;-70
2023/05/28 11:33:17;;;;;;;6.80;6.10;;;39.80;31.30;;;;;;5032252;28;20502;-67
2023/05/28 11:35:43;;;;;;;5.90;5.40;;;39.50;31.70;;;;;;5032310;28;20186;-67
2023/05/28 11:38:08;;;;;;;9.30;6.33;;;39.80;30.60;;;;;;5032061;28;20179;-68
2023/05/28 11:40:34;;;;;;;6.07;5.00;;;39.70;30.70;;;;;;5031933;28;20324;-67
2023/05/28 11:43:00;;;;;;;7.77;5.23;;;39.10;30.80;;;;;;5032074;28;20198;-68
2023/05/28 11:45:26;;;;;;;6.63;6.03;;;38.90;30.80;;;;;;5032223;28;20424;-67
2023/05/28 11:47:52;;;;;;;8.37;6.10;;;40.30;29.90;;;;;;5032187;28;20171;-67
2023/05/28 11:50:17;;;;;;;7.30;6.00;;;41.50;30.40;;;;;;5031927;28;20182;-67
2023/05/28 11:52:44;;;;;;;6.63;6.03;;;41.60;30.80;;;;;;5031950;28;20217;-67
2023/05/28 11:55:10;;;;;;;6.60;6.00;;;41.40;30.40;;;;;;5031900;28;20181;-67
2023/05/28 11:57:43;;;;;;;7.97;6.17;;;40.90;30.30;;;;;;5032102;28;20424;-67
2023/05/28 12:00:15;;;;;;;6.20;5.60;;;40.70;30.50;;;;;;5031699;28;20501;-67
2023/05/28 12:02:48;;;;;;;7.33;6.70;;;40.50;30.50;;;;;;5031783;28;20469;-67
2023/05/28 12:05:16;;;;;;;6.33;5.70;;;40.30;30.50;;;;;;5031759;28;20512;-67
2023/05/28 12:07:50;;;;;;;7.30;6.27;;;38.90;31.10;;;;;;5031638;28;20432;-67
2023/05/28 12:10:19;;;;;;;9.17;8.10;;;39.50;30.80;;;;;;5031474;28;20425;-67
2023/05/28 12:12:50;;;;;;;5.87;5.37;;;39.60;30.20;;;;;;5031560;28;20598;-67
2023/05/28 12:15:16;;;;;;;7.63;6.37;;;41.00;29.60;;;;;;5031581;28;20428;-67
2023/05/28 12:17:43;;;;;;;6.80;6.20;;;41.80;28.90;;;;;;5031348;28;20421;-67
2023/05/28 12:20:14;;;;;;;6.70;6.13;;;41.90;28.40;;;;;;5031306;28;20424;-67
2023/05/28 12:22:41;;;;;;;7.77;6.80;;;42.40;28.60;;;;;;5031355;28;20469;-67
2023/05/28 12:25:07;;;;;;;6.63;5.87;;;43.20;27.80;;;;;;5031570;28;20420;-67
2023/05/28 12:27:33;;;;;;;6.43;5.90;;;43.00;27.70;;;;;;5031631;28;20426;-67
2023/05/28 12:29:59;;;;;;;8.33;6.67;;;43.50;27.90;;;;;;5031331;28;20457;-67
2023/05/28 12:32:25;;;;;;;6.47;5.87;;;43.60;27.20;;;;;;5031344;28;20460;-67
2023/05/28 12:34:56;;;;;;;5.50;5.10;;;43.60;26.90;;;;;;5031736;28;20186;-67
2023/05/28 12:37:25;;;;;;;5.97;5.20;;;43.00;26.50;;;;;;5031718;28;20425;-67
2023/05/28 12:39:51;;;;;;;12.33;6.60;;;42.10;26.50;;;;;;5031254;28;20862;-67
2023/05/28 12:42:17;;;;;;;5.93;5.40;;;42.70;26.10;;;;;;5031240;28;20536;-67
2023/05/28 12:44:42;;;;;;;6.17;5.67;;;40.70;26.70;;;;;;5031456;28;20504;-67